createdAt,value
2022-09-26T00:01:07.692Z,0.88
2022-09-26T00:03:34.568Z,1.00
2022-09-26T00:06:04.876Z,1.10
2022-09-26T00:08:31.256Z,0.90
2022-09-26T00:11:08.521Z,1.15
2022-09-26T00:13:36.760Z,1.00
2022-09-26T00:16:03.182Z,1.00
2022-09-26T00:18:29.526Z,0.80
2022-09-26T00:21:03.626Z,1.00
2022-09-26T00:23:30.002Z,0.88
2022-09-26T00:25:56.762Z,0.80
2022-09-26T00:28:23.106Z,1.10
2022-09-26T00:30:49.587Z,1.00
2022-09-26T00:33:16.078Z,0.90
2022-09-26T00:35:49.026Z,1.00
2022-09-26T00:38:15.407Z,1.10
2022-09-26T00:40:41.773Z,0.90
2022-09-26T00:43:25.183Z,1.00
2022-09-26T00:45:51.605Z,1.13
2022-09-26T00:48:18.653Z,0.90
2022-09-26T00:50:45.513Z,1.15
2022-09-26T00:53:11.804Z,0.88
2022-09-26T00:55:39.471Z,1.20
2022-09-26T00:58:10.008Z,0.95
2022-09-26T01:00:42.108Z,1.10
2022-09-26T01:03:08.974Z,1.02
2022-09-26T01:05:36.362Z,1.30
2022-09-26T01:08:03.318Z,1.38
2022-09-26T01:10:30.173Z,1.15
2022-09-26T01:12:57.784Z,1.30
2022-09-26T01:15:24.115Z,0.95
2022-09-26T01:17:51.058Z,1.00
2022-09-26T01:20:21.491Z,1.17
2022-09-26T01:22:50.809Z,0.90
2022-09-26T01:25:32.470Z,1.30
2022-09-26T01:28:05.406Z,1.10
2022-09-26T01:30:37.555Z,1.33
2022-09-26T01:33:42.666Z,1.30
2022-09-26T01:36:14.358Z,0.98
2022-09-26T01:38:59.353Z,1.00
2022-09-26T01:41:50.191Z,1.00
2022-09-26T01:44:39.944Z,1.20
2022-09-26T01:47:29.662Z,1.10
2022-09-26T01:50:16.321Z,1.20
2022-09-26T01:52:49.042Z,0.90
2022-09-26T01:55:15.480Z,0.90
2022-09-26T01:57:48.456Z,1.23
2022-09-26T02:00:15.333Z,1.30
2022-09-26T02:02:48.838Z,1.02
2022-09-26T02:05:24.421Z,1.05
2022-09-26T02:07:54.882Z,0.95
2022-09-26T02:10:47.703Z,1.13
2022-09-26T02:13:16.462Z,1.05
2022-09-26T02:15:44.426Z,1.00
2022-09-26T02:18:21.074Z,1.42
2022-09-26T02:21:00.474Z,1.05
2022-09-26T02:23:26.864Z,1.25
2022-09-26T02:25:54.012Z,0.98
2022-09-26T02:28:20.729Z,1.00
2022-09-26T02:30:47.472Z,1.00
2022-09-26T02:33:14.261Z,0.93
2022-09-26T02:35:55.808Z,0.90
2022-09-26T02:38:23.371Z,1.13
2022-09-26T02:40:51.909Z,1.00
2022-09-26T02:43:29.271Z,1.00
2022-09-26T02:45:58.750Z,0.90
2022-09-26T02:48:31.200Z,1.00
2022-09-26T02:51:04.078Z,0.98
2022-09-26T02:53:50.765Z,1.08
2022-09-26T02:56:25.101Z,0.90
2022-09-26T02:59:06.373Z,1.08
2022-09-26T03:01:42.266Z,1.10
2022-09-26T03:04:13.140Z,1.10
2022-09-26T03:06:41.252Z,0.93
2022-09-26T03:09:08.819Z,1.02
2022-09-26T03:11:35.872Z,0.90
2022-09-26T03:14:03.035Z,1.33
2022-09-26T03:16:33.795Z,1.33
2022-09-26T03:19:14.470Z,1.10
2022-09-26T03:21:41.040Z,1.17
2022-09-26T03:24:07.388Z,1.20
2022-09-26T03:26:34.423Z,1.10
2022-09-26T03:29:00.801Z,1.08
2022-09-26T03:31:28.330Z,1.15
2022-09-26T03:33:54.745Z,1.35
2022-09-26T03:36:24.071Z,1.25
2022-09-26T03:38:50.418Z,1.08
2022-09-26T03:41:16.892Z,1.02
2022-09-26T03:43:43.964Z,1.00
2022-09-26T03:46:15.752Z,1.15
2022-09-26T03:48:42.342Z,1.00
2022-09-26T03:51:09.797Z,1.10
2022-09-26T03:53:37.501Z,1.23
2022-09-26T03:56:08.047Z,1.05
2022-09-26T03:58:34.505Z,1.30
2022-09-26T04:01:14.448Z,1.10
2022-09-26T04:03:46.443Z,1.10
2022-09-26T04:06:19.847Z,1.30
2022-09-26T04:08:49.936Z,1.25
2022-09-26T04:11:19.194Z,1.05
2022-09-26T04:13:52.060Z,1.45
2022-09-26T04:16:20.574Z,1.20
2022-09-26T04:18:47.880Z,1.10
2022-09-26T04:21:14.579Z,1.13
2022-09-26T04:23:41.655Z,1.30
2022-09-26T04:26:13.007Z,1.30
2022-09-26T04:28:39.975Z,1.30
2022-09-26T04:31:07.333Z,1.20
2022-09-26T04:33:33.793Z,1.10
2022-09-26T04:36:04.529Z,1.20
2022-09-26T04:38:34.127Z,0.90
2022-09-26T04:41:14.169Z,1.10
2022-09-26T04:43:40.664Z,0.90
2022-09-26T04:46:11.759Z,1.20
2022-09-26T04:48:38.312Z,0.98
2022-09-26T04:51:08.480Z,0.90
2022-09-26T04:53:35.531Z,1.10
2022-09-26T04:56:02.338Z,0.90
2022-09-26T04:58:29.528Z,0.90
2022-09-26T05:00:56.233Z,1.00
2022-09-26T05:03:22.808Z,1.10
2022-09-26T05:05:50.400Z,1.23
2022-09-26T05:08:16.837Z,1.10
2022-09-26T05:10:43.717Z,1.00
2022-09-26T05:13:10.882Z,0.85
2022-09-26T05:15:42.819Z,1.05
2022-09-26T05:18:11.326Z,1.20
2022-09-26T05:20:38.602Z,1.33
2022-09-26T05:23:06.496Z,1.20
2022-09-26T05:25:58.806Z,1.10
2022-09-26T05:28:26.077Z,1.20
2022-09-26T05:30:52.949Z,1.15
2022-09-26T05:33:21.825Z,1.52
2022-09-26T05:35:53.366Z,1.20
2022-09-26T05:38:19.701Z,1.30
2022-09-26T05:40:58.167Z,1.33
2022-09-26T05:43:25.010Z,1.00
2022-09-26T05:45:51.382Z,1.15
2022-09-26T05:48:17.717Z,1.30
2022-09-26T05:50:44.913Z,1.38
2022-09-26T05:53:11.272Z,1.00
2022-09-26T05:55:37.934Z,1.30
2022-09-26T05:58:06.089Z,1.60
2022-09-26T06:00:34.598Z,1.70
2022-09-26T06:03:03.962Z,1.42
2022-09-26T06:05:31.185Z,1.30
2022-09-26T06:07:58.669Z,1.27
2022-09-26T06:10:25.077Z,1.17
2022-09-26T06:12:51.477Z,1.08
2022-09-26T06:15:17.950Z,1.40
2022-09-26T06:17:48.149Z,1.30
2022-09-26T06:20:14.537Z,1.10
2022-09-26T06:22:41.841Z,1.30
2022-09-26T06:25:09.155Z,1.20
2022-09-26T06:27:38.466Z,1.40
2022-09-26T06:30:07.676Z,1.20
2022-09-26T06:32:34.946Z,1.48
2022-09-26T06:35:01.270Z,1.10
2022-09-26T06:37:27.770Z,1.33
2022-09-26T06:39:59.090Z,1.15
2022-09-26T06:42:25.866Z,1.38
2022-09-26T06:44:52.255Z,1.20
2022-09-26T06:47:18.680Z,1.30
2022-09-26T06:49:49.139Z,0.95
2022-09-26T06:52:15.509Z,1.10
2022-09-26T06:54:42.059Z,1.30
2022-09-26T06:57:12.859Z,1.95
2022-09-26T06:59:41.390Z,1.35
2022-09-26T07:02:10.944Z,1.42
2022-09-26T07:04:37.423Z,1.20
2022-09-26T07:07:03.786Z,1.50
2022-09-26T07:09:30.163Z,1.30
2022-09-26T07:12:13.963Z,1.23
2022-09-26T07:14:41.119Z,1.50
2022-09-26T07:17:07.827Z,2.13
2022-09-26T07:19:34.263Z,1.20
2022-09-26T07:22:00.619Z,1.40
2022-09-26T07:24:28.032Z,1.40
2022-09-26T07:26:54.363Z,1.55
2022-09-26T07:29:20.699Z,1.50
2022-09-26T07:31:47.274Z,1.17
2022-09-26T07:34:18.088Z,1.10
2022-09-26T07:36:47.400Z,1.20
2022-09-26T07:39:13.974Z,1.50
2022-09-26T07:41:40.467Z,1.40
2022-09-26T07:47:11.891Z,1.30
2022-09-26T07:49:56.822Z,1.30
2022-09-26T07:52:23.312Z,1.27
2022-09-26T07:54:49.714Z,1.30
2022-09-26T07:57:19.315Z,1.20
2022-09-26T07:59:45.857Z,1.42
2022-09-26T08:02:25.921Z,1.35
2022-09-26T08:04:58.762Z,1.60
2022-09-26T08:07:27.406Z,1.42
2022-09-26T08:09:54.207Z,1.33
2022-09-26T08:12:20.615Z,1.50
2022-09-26T08:14:49.148Z,1.60
2022-09-26T08:17:16.125Z,1.50
2022-09-26T08:19:42.885Z,1.23
2022-09-26T08:22:09.284Z,1.10
2022-09-26T08:24:36.042Z,1.30
2022-09-26T08:27:02.373Z,1.05
2022-09-26T08:29:30.962Z,1.23
2022-09-26T08:31:58.364Z,1.40
2022-09-26T08:34:25.813Z,1.15
2022-09-26T08:36:55.013Z,1.20
2022-09-26T08:39:21.831Z,1.30
2022-09-26T08:41:48.243Z,1.05
2022-09-26T08:44:28.224Z,1.20
2022-09-26T08:47:00.107Z,1.20
2022-09-26T08:49:29.328Z,0.90
2022-09-26T08:51:57.836Z,1.10
2022-09-26T08:54:24.361Z,1.35
2022-09-26T08:56:54.848Z,1.08
2022-09-26T08:59:29.688Z,1.27
2022-09-26T09:01:58.667Z,1.50
2022-09-26T09:04:30.934Z,1.10
2022-09-26T09:07:04.419Z,1.00
2022-09-26T09:09:30.877Z,0.90
2022-09-26T09:12:06.542Z,1.08
2022-09-26T09:15:02.292Z,0.90
2022-09-26T09:17:34.198Z,1.15
2022-09-26T09:20:24.027Z,1.10
2022-09-26T09:23:10.620Z,1.00
2022-09-26T09:25:43.550Z,1.00
2022-09-26T09:28:20.775Z,1.02
2022-09-26T09:30:50.301Z,0.85
2022-09-26T09:33:22.525Z,0.82
2022-09-26T09:35:51.757Z,0.80
2022-09-26T09:38:21.542Z,0.82
2022-09-26T09:41:00.300Z,0.98
2022-09-26T09:43:30.230Z,0.80
2022-09-26T09:46:04.148Z,0.82
2022-09-26T09:48:30.514Z,1.00
2022-09-26T09:50:56.843Z,0.80
2022-09-26T09:53:36.541Z,0.73
2022-09-26T09:56:08.806Z,0.70
2022-09-26T09:58:50.163Z,2.45
2022-09-26T10:01:32.241Z,0.70
2022-09-26T10:04:28.403Z,1.00
2022-09-26T10:06:55.741Z,0.88
2022-09-26T10:09:38.183Z,0.90
2022-09-26T10:12:18.276Z,0.90
2022-09-26T10:14:44.709Z,1.27
2022-09-26T10:17:11.045Z,1.10
2022-09-26T10:19:38.682Z,0.95
2022-09-26T10:22:09.365Z,1.02
2022-09-26T10:24:41.084Z,1.20
2022-09-26T10:27:14.062Z,0.90
2022-09-26T10:29:40.534Z,0.70
2022-09-26T10:32:07.006Z,0.80
2022-09-26T10:34:34.523Z,1.10
2022-09-26T10:37:22.061Z,1.00
2022-09-26T10:40:11.343Z,0.90
2022-09-26T10:42:38.198Z,0.73
2022-09-26T10:45:11.275Z,1.75
2022-09-26T10:47:38.086Z,0.90
2022-09-26T10:50:11.601Z,0.70
2022-09-26T10:52:46.277Z,1.00
2022-09-26T10:55:15.191Z,0.80
2022-09-26T10:57:47.986Z,0.98
2022-09-26T11:00:38.607Z,0.80
2022-09-26T11:03:13.126Z,0.82
2022-09-26T11:05:57.252Z,0.80
2022-09-26T11:08:34.060Z,0.88
2022-09-26T11:11:02.260Z,1.00
2022-09-26T11:13:32.201Z,1.00
2022-09-26T11:16:03.018Z,0.80
2022-09-26T11:18:46.361Z,0.90
2022-09-26T11:21:28.188Z,1.00
2022-09-26T11:23:58.119Z,0.90
2022-09-26T11:26:53.527Z,1.40
2022-09-26T11:29:28.244Z,0.90
2022-09-26T11:31:59.477Z,1.00
2022-09-26T11:34:31.426Z,1.10
2022-09-26T11:37:10.033Z,0.82
2022-09-26T11:39:36.339Z,0.88
2022-09-26T11:42:02.682Z,0.80
2022-09-26T11:44:29.167Z,0.80
2022-09-26T11:47:02.323Z,0.68
2022-09-26T11:49:31.484Z,0.90
2022-09-26T11:52:00.834Z,0.70
2022-09-26T11:54:33.638Z,0.98
2022-09-26T11:57:18.940Z,0.68
2022-09-26T12:00:02.314Z,0.65
2022-09-26T12:02:39.921Z,0.57
2022-09-26T12:05:14.259Z,0.73
2022-09-26T12:07:59.391Z,0.68
2022-09-26T12:10:28.723Z,0.65
2022-09-26T12:12:59.948Z,0.60
2022-09-26T12:16:01.743Z,0.63
2022-09-26T12:18:43.546Z,0.50
2022-09-26T12:21:12.651Z,0.40
2022-09-26T12:23:50.470Z,0.57
2022-09-26T12:26:25.941Z,0.60
2022-09-26T12:28:58.315Z,0.50
2022-09-26T12:31:33.163Z,0.70
2022-09-26T12:33:59.672Z,0.52
2022-09-26T12:36:40.471Z,0.68
2022-09-26T12:39:30.089Z,0.70
2022-09-26T12:42:07.667Z,0.57
2022-09-26T12:44:46.553Z,0.40
2022-09-26T12:47:15.758Z,0.98
2022-09-26T12:50:00.979Z,0.60
2022-09-26T12:52:36.665Z,0.68
2022-09-26T12:55:21.321Z,0.40
2022-09-26T12:57:48.149Z,0.40
2022-09-26T13:00:16.593Z,1.40
2022-09-26T13:02:58.250Z,0.50
2022-09-26T13:05:36.955Z,0.50
2022-09-26T13:08:19.073Z,0.50
2022-09-26T13:10:51.581Z,0.40
2022-09-26T13:13:24.759Z,0.55
2022-09-26T13:16:05.053Z,0.60
2022-09-26T13:18:37.551Z,0.80
2022-09-26T13:21:08.956Z,0.70
2022-09-26T13:23:44.344Z,0.50
2022-09-26T13:26:25.889Z,0.60
2022-09-26T13:29:17.503Z,0.90
2022-09-26T13:31:46.806Z,0.50
2022-09-26T13:34:13.195Z,0.60
2022-09-26T13:36:42.229Z,0.60
2022-09-26T13:39:43.915Z,0.60
2022-09-26T13:42:21.476Z,0.50
2022-09-26T13:44:59.507Z,0.60
2022-09-26T13:47:33.538Z,0.60
2022-09-26T13:50:16.157Z,0.70
2022-09-26T13:52:52.846Z,0.52
2022-09-26T13:55:21.663Z,0.70
2022-09-26T13:57:52.339Z,0.80
2022-09-26T14:00:30.135Z,0.70
2022-09-26T14:03:18.064Z,0.70
2022-09-26T14:05:44.708Z,0.80
2022-09-26T14:08:42.043Z,0.85
2022-09-26T14:11:30.640Z,0.70
2022-09-26T14:14:21.458Z,1.00
2022-09-26T14:16:52.317Z,0.73
2022-09-26T14:19:29.313Z,0.90
2022-09-26T14:21:58.754Z,0.65
2022-09-26T14:24:38.239Z,0.80
2022-09-26T14:27:04.639Z,0.70
2022-09-26T14:29:30.950Z,0.60
2022-09-26T14:32:17.631Z,0.70
2022-09-26T14:34:53.313Z,0.75
2022-09-26T14:37:20.061Z,1.10
2022-09-26T14:39:46.569Z,0.50
2022-09-26T14:42:18.254Z,0.70
2022-09-26T14:44:51.240Z,0.98
2022-09-26T14:47:17.678Z,0.63
2022-09-26T14:49:52.795Z,0.80
2022-09-26T14:52:20.423Z,0.73
2022-09-26T14:54:47.033Z,0.70
2022-09-26T14:57:33.589Z,0.90
2022-09-26T15:00:00.984Z,0.98
2022-09-26T15:02:38.871Z,0.80
2022-09-26T15:05:08.514Z,0.65
2022-09-26T15:07:43.234Z,0.77
2022-09-26T15:10:13.222Z,0.70
2022-09-26T15:12:42.467Z,0.53
2022-09-26T15:15:27.639Z,1.40
2022-09-26T15:17:56.478Z,1.10
2022-09-26T15:20:25.237Z,1.00
2022-09-26T15:22:54.012Z,0.95
2022-09-26T15:25:25.422Z,0.70
2022-09-26T15:27:55.461Z,1.02
2022-09-26T15:30:24.366Z,1.07
2022-09-26T15:32:55.797Z,0.75
2022-09-26T15:35:22.194Z,1.20
2022-09-26T15:37:48.868Z,0.93
2022-09-26T15:40:15.249Z,1.00
2022-09-26T15:43:01.587Z,1.13
2022-09-26T15:45:28.819Z,1.20
2022-09-26T15:47:56.492Z,0.90
2022-09-26T15:50:23.420Z,1.25
2022-09-26T15:52:55.649Z,1.00
2022-09-26T15:55:24.843Z,1.33
2022-09-26T15:57:53.273Z,1.20
2022-09-26T16:00:20.096Z,1.50
2022-09-26T16:02:46.851Z,1.52
2022-09-26T16:05:14.392Z,1.38
2022-09-26T16:07:41.641Z,1.60
2022-09-26T16:10:21.585Z,1.40
2022-09-26T16:12:48.228Z,1.45
2022-09-26T16:15:28.975Z,1.23
2022-09-26T16:17:57.475Z,1.38
2022-09-26T16:20:24.131Z,1.20
2022-09-26T16:23:01.826Z,1.40
2022-09-26T16:25:35.192Z,1.43
2022-09-26T16:28:03.593Z,1.73
2022-09-26T16:30:30.208Z,1.20
2022-09-26T16:33:13.107Z,1.38
2022-09-26T16:35:47.275Z,1.55
2022-09-26T16:38:19.842Z,1.10
2022-09-26T16:40:53.845Z,1.17
2022-09-26T16:43:24.101Z,1.40
2022-09-26T16:45:57.014Z,1.52
2022-09-26T16:48:40.171Z,1.65
2022-09-26T16:51:23.675Z,1.35
2022-09-26T16:54:08.322Z,1.30
2022-09-26T16:56:41.853Z,1.67
2022-09-26T16:59:18.894Z,1.75
2022-09-26T17:01:56.244Z,1.38
2022-09-26T17:04:24.976Z,1.88
2022-09-26T17:06:53.687Z,1.58
2022-09-26T17:09:21.848Z,1.40
2022-09-26T17:11:53.218Z,1.63
2022-09-26T17:14:21.385Z,1.48
2022-09-26T17:16:50.407Z,1.48
2022-09-26T17:19:17.538Z,1.80
2022-09-26T17:21:45.418Z,2.05
2022-09-26T17:24:16.730Z,1.60
2022-09-26T17:26:47.217Z,1.90
2022-09-26T17:29:19.495Z,1.67
2022-09-26T17:31:45.916Z,1.67
2022-09-26T17:34:14.086Z,1.38
2022-09-26T17:36:42.812Z,2.35
2022-09-26T17:39:12.539Z,1.70
2022-09-26T17:41:38.949Z,1.75
2022-09-26T17:44:05.444Z,1.58
2022-09-26T17:46:32.036Z,1.73
2022-09-26T17:49:00.515Z,2.30
2022-09-26T17:51:26.907Z,2.67
2022-09-26T17:53:57.507Z,2.08
2022-09-26T17:56:26.188Z,2.58
2022-09-26T17:58:54.118Z,2.45
2022-09-26T18:01:27.915Z,1.63
2022-09-26T18:03:57.485Z,1.95
2022-09-26T18:06:25.685Z,1.73
2022-09-26T18:08:54.841Z,1.45
2022-09-26T18:11:24.252Z,1.30
2022-09-26T18:13:54.355Z,1.48
2022-09-26T18:16:21.478Z,1.50
2022-09-26T18:18:48.036Z,1.48
2022-09-26T18:21:42.006Z,1.88
2022-09-26T18:24:21.896Z,1.50
2022-09-26T18:26:59.251Z,1.33
2022-09-26T18:29:28.041Z,1.67
2022-09-26T18:31:54.670Z,1.88
2022-09-26T18:34:21.150Z,1.80
2022-09-26T18:36:48.878Z,1.55
2022-09-26T18:39:15.421Z,1.65
2022-09-26T18:41:42.079Z,2.25
2022-09-26T18:44:18.091Z,1.60
2022-09-26T18:46:46.913Z,1.52
2022-09-26T18:49:14.134Z,1.60
2022-09-26T18:51:40.494Z,1.75
2022-09-26T18:54:14.028Z,1.60
2022-09-26T18:56:59.408Z,1.35
2022-09-26T18:59:29.038Z,1.85
2022-09-26T19:01:56.241Z,1.80
2022-09-26T19:04:26.259Z,1.65
2022-09-26T19:06:57.882Z,1.38
2022-09-26T19:09:25.635Z,1.63
2022-09-26T19:11:52.010Z,1.50
2022-09-26T19:14:20.883Z,1.50
2022-09-26T19:16:48.067Z,1.52
2022-09-26T19:19:14.871Z,1.42
2022-09-26T19:21:42.694Z,1.63
2022-09-26T19:24:12.142Z,1.63
2022-09-26T19:26:39.968Z,1.70
2022-09-26T19:29:12.069Z,1.58
2022-09-26T19:31:38.717Z,1.58
2022-09-26T19:34:05.270Z,1.60
2022-09-26T19:36:31.631Z,1.88
2022-09-26T19:38:58.041Z,2.10
2022-09-26T19:41:24.384Z,1.73
2022-09-26T19:43:50.739Z,1.83
2022-09-26T19:46:24.805Z,1.70
2022-09-26T19:48:51.445Z,1.75
2022-09-26T19:51:18.684Z,1.65
2022-09-26T19:53:45.172Z,1.60
2022-09-26T19:56:11.618Z,1.70
2022-09-26T19:58:37.987Z,1.75
2022-09-26T20:01:13.114Z,1.52
2022-09-26T20:03:40.512Z,1.77
2022-09-26T20:06:18.623Z,1.58
2022-09-26T20:08:45.076Z,1.58
2022-09-26T20:11:11.448Z,1.65
2022-09-26T20:13:56.633Z,1.50
2022-09-26T20:16:23.569Z,1.50
2022-09-26T20:18:51.175Z,1.38
2022-09-26T20:21:20.514Z,1.30
2022-09-26T20:23:46.950Z,1.60
2022-09-26T20:26:14.409Z,1.48
2022-09-26T20:28:40.801Z,1.30
2022-09-26T20:31:21.467Z,1.50
2022-09-26T20:33:48.614Z,1.67
2022-09-26T20:36:15.848Z,2.03
2022-09-26T20:38:49.049Z,1.60
2022-09-26T20:41:21.727Z,1.70
2022-09-26T20:43:49.367Z,1.70
2022-09-26T20:46:15.827Z,1.50
2022-09-26T20:48:42.902Z,1.73
2022-09-26T20:51:16.131Z,1.90
2022-09-26T20:53:42.699Z,1.85
2022-09-26T20:56:16.977Z,1.77
2022-09-26T20:58:43.833Z,2.03
2022-09-26T21:01:14.379Z,1.77
2022-09-26T21:03:46.253Z,1.77
2022-09-26T21:06:20.191Z,1.85
2022-09-26T21:08:47.349Z,1.77
2022-09-26T21:11:15.175Z,1.77
2022-09-26T21:13:42.315Z,1.90
2022-09-26T21:16:15.461Z,2.08
2022-09-26T21:18:43.610Z,1.40
2022-09-26T21:21:15.382Z,1.95
2022-09-26T21:23:42.837Z,1.70
2022-09-26T21:26:19.428Z,1.58
2022-09-26T21:28:46.639Z,1.88
2022-09-26T21:31:27.479Z,1.98
2022-09-26T21:33:54.833Z,1.67
2022-09-26T21:36:21.347Z,1.50
2022-09-26T21:38:48.618Z,1.42
2022-09-26T21:41:15.060Z,1.83
2022-09-26T21:43:43.278Z,1.90
2022-09-26T21:46:09.765Z,1.98
2022-09-26T21:48:36.454Z,1.75
2022-09-26T21:51:03.759Z,1.42
2022-09-26T21:53:36.690Z,1.55
2022-09-26T21:56:07.862Z,1.70
2022-09-26T21:58:36.157Z,2.03
2022-09-26T22:01:02.619Z,1.70
2022-09-26T22:03:32.419Z,1.50
2022-09-26T22:06:01.391Z,1.80
2022-09-26T22:08:30.498Z,1.35
2022-09-26T22:10:56.849Z,1.55
2022-09-26T22:13:23.243Z,1.30
2022-09-26T22:15:49.610Z,1.35
2022-09-26T22:18:16.033Z,1.77
2022-09-26T22:20:42.405Z,1.60
2022-09-26T22:23:08.744Z,1.50
2022-09-26T22:25:37.649Z,1.55
2022-09-26T22:30:32.278Z,1.45
2022-09-26T22:32:58.697Z,1.45
2022-09-26T22:35:25.358Z,1.60
2022-09-26T22:37:53.909Z,1.58
2022-09-26T22:40:20.318Z,1.90
2022-09-26T22:42:48.939Z,1.92
2022-09-26T22:45:15.310Z,1.42
2022-09-26T22:47:41.834Z,2.40
2022-09-26T22:50:08.500Z,1.52
2022-09-26T22:52:34.853Z,1.90
2022-09-26T22:55:01.297Z,1.73
2022-09-26T22:57:27.766Z,1.80
2022-09-26T22:59:54.145Z,1.67
2022-09-26T23:02:20.569Z,1.80
2022-09-26T23:04:47.105Z,1.50
2022-09-26T23:07:14.255Z,1.52
2022-09-26T23:09:40.814Z,1.75
2022-09-26T23:12:07.608Z,1.60
2022-09-26T23:14:34.480Z,1.63
2022-09-26T23:17:00.884Z,1.63
2022-09-26T23:19:31.986Z,1.42
2022-09-26T23:24:24.635Z,1.42
2022-09-26T23:26:51.048Z,1.67
2022-09-26T23:29:17.542Z,1.40
2022-09-26T23:31:43.903Z,1.80
2022-09-26T23:34:11.802Z,1.33
2022-09-26T23:36:39.682Z,1.52
2022-09-26T23:39:06.221Z,1.50
2022-09-26T23:41:32.622Z,1.58
2022-09-26T23:43:59.012Z,1.50
2022-09-26T23:46:25.423Z,1.48
2022-09-26T23:48:51.914Z,1.50
2022-09-26T23:51:18.294Z,1.50
2022-09-26T23:53:44.897Z,1.50
2022-09-26T23:56:12.451Z,1.50
2022-09-26T23:58:39.103Z,1.60
